sensor_id;sensor_type;location;lat;lon;timestamp;temperature;humidity
23591;DHT22;11973;52.098;7.582;2023-07-31T04:15:26;16.90;93.10
23591;DHT22;11973;52.098;7.582;2023-07-31T04:17:52;16.90;93.20
23591;DHT22;11973;52.098;7.582;2023-07-31T04:20:18;16.90;93.20
23591;DHT22;11973;52.098;7.582;2023-07-31T04:22:44;16.90;93.20
23591;DHT22;11973;52.098;7.582;2023-07-31T04:25:11;16.90;93.30
23591;DHT22;11973;52.098;7.582;2023-07-31T04:27:37;16.90;93.30
23591;DHT22;11973;52.098;7.582;2023-07-31T04:30:03;16.90;93.40
23591;DHT22;11973;52.098;7.582;2023-07-31T04:32:28;16.90;93.40
23591;DHT22;11973;52.098;7.582;2023-07-31T04:34:55;16.80;93.30
23591;DHT22;11973;52.098;7.582;2023-07-31T04:37:21;16.80;93.30
23591;DHT22;11973;52.098;7.582;2023-07-31T04:39:46;16.80;93.40
23591;DHT22;11973;52.098;7.582;2023-07-31T04:42:12;16.80;93.40
23591;DHT22;11973;52.098;7.582;2023-07-31T04:44:38;16.80;93.40
23591;DHT22;11973;52.098;7.582;2023-07-31T04:47:04;16.80;93.40
23591;DHT22;11973;52.098;7.582;2023-07-31T04:49:29;16.80;93.40
23591;DHT22;11973;52.098;7.582;2023-07-31T04:51:55;16.80;93.50
23591;DHT22;11973;52.098;7.582;2023-07-31T04:54:21;16.80;93.50
23591;DHT22;11973;52.098;7.582;2023-07-31T04:56:46;16.80;93.50
23591;DHT22;11973;52.098;7.582;2023-07-31T04:59:13;16.80;93.50
23591;DHT22;11973;52.098;7.582;2023-07-31T05:01:38;16.80;93.50
23591;DHT22;11973;52.098;7.582;2023-07-31T05:04:04;16.80;93.50
23591;DHT22;11973;52.098;7.582;2023-07-31T05:06:30;16.80;93.90
23591;DHT22;11973;52.098;7.582;2023-07-31T05:08:55;16.80;93.50
23591;DHT22;11973;52.098;7.582;2023-07-31T05:11:21;16.80;93.50
23591;DHT22;11973;52.098;7.582;2023-07-31T05:13:47;16.80;93.50
23591;DHT22;11973;52.098;7.582;2023-07-31T05:16:12;16.80;93.50
23591;DHT22;11973;52.098;7.582;2023-07-31T05:18:38;16.80;93.50
23591;DHT22;11973;52.098;7.582;2023-07-31T05:21:04;16.80;93.50
23591;DHT22;11973;52.098;7.582;2023-07-31T05:23:30;16.80;93.50
23591;DHT22;11973;52.098;7.582;2023-07-31T05:26:07;16.80;93.50
23591;DHT22;11973;52.098;7.582;2023-07-31T05:28:35;16.80;93.50
23591;DHT22;11973;52.098;7.582;2023-07-31T05:31:03;16.80;93.50
23591;DHT22;11973;52.098;7.582;2023-07-31T05:33:29;16.80;93.50
23591;DHT22;11973;52.098;7.582;2023-07-31T05:35:55;16.80;93.50
23591;DHT22;11973;52.098;7.582;2023-07-31T05:38:20;16.80;93.50
23591;DHT22;11973;52.098;7.582;2023-07-31T05:40:47;16.80;93.60
23591;DHT22;11973;52.098;7.582;2023-07-31T05:43:13;16.80;93.60
23591;DHT22;11973;52.098;7.582;2023-07-31T05:45:38;16.90;93.60
23591;DHT22;11973;52.098;7.582;2023-07-31T05:48:05;16.90;93.70
23591;DHT22;11973;52.098;7.582;2023-07-31T05:50:31;16.90;93.70
23591;DHT22;11973;52.098;7.582;2023-07-31T05:52:57;16.80;93.60
23591;DHT22;11973;52.098;7.582;2023-07-31T05:55:24;16.80;93.60
23591;DHT22;11973;52.098;7.582;2023-07-31T05:57:53;16.90;93.70
23591;DHT22;11973;52.098;7.582;2023-07-31T06:00:18;16.90;93.70
23591;DHT22;11973;52.098;7.582;2023-07-31T06:02:44;16.90;93.70
23591;DHT22;11973;52.098;7.582;2023-07-31T06:05:10;16.90;93.70
23591;DHT22;11973;52.098;7.582;2023-07-31T06:07:36;16.90;93.70
23591;DHT22;11973;52.098;7.582;2023-07-31T06:10:02;16.90;93.80
23591;DHT22;11973;52.098;7.582;2023-07-31T06:12:31;16.90;93.80
23591;DHT22;11973;52.098;7.582;2023-07-31T06:14:57;16.90;93.80
23591;DHT22;11973;52.098;7.582;2023-07-31T06:17:23;17.00;93.80
23591;DHT22;11973;52.098;7.582;2023-07-31T06:19:50;17.00;93.90
23591;DHT22;11973;52.098;7.582;2023-07-31T06:22:16;17.10;93.90
23591;DHT22;11973;52.098;7.582;2023-07-31T06:24:42;17.10;93.90
23591;DHT22;11973;52.098;7.582;2023-07-31T06:27:07;17.10;93.90
23591;DHT22;11973;52.098;7.582;2023-07-31T06:29:34;17.10;93.90
23591;DHT22;11973;52.098;7.582;2023-07-31T06:32:00;17.10;93.90
23591;DHT22;11973;52.098;7.582;2023-07-31T06:34:26;17.10;94.00
23591;DHT22;11973;52.098;7.582;2023-07-31T06:36:51;17.10;94.00
23591;DHT22;11973;52.098;7.582;2023-07-31T06:39:17;17.20;94.40
23591;DHT22;11973;52.098;7.582;2023-07-31T06:41:43;17.20;94.10
23591;DHT22;11973;52.098;7.582;2023-07-31T06:44:10;17.30;94.10
23591;DHT22;11973;52.098;7.582;2023-07-31T06:46:54;17.30;94.10
23591;DHT22;11973;52.098;7.582;2023-07-31T06:49:20;17.40;94.20
23591;DHT22;11973;52.098;7.582;2023-07-31T06:51:46;17.40;94.10
23591;DHT22;11973;52.098;7.582;2023-07-31T06:54:12;17.40;94.10
23591;DHT22;11973;52.098;7.582;2023-07-31T06:56:38;17.40;94.10
23591;DHT22;11973;52.098;7.582;2023-07-31T06:59:03;17.30;94.10
23591;DHT22;11973;52.098;7.582;2023-07-31T07:01:30;17.30;94.10
23591;DHT22;11973;52.098;7.582;2023-07-31T07:03:56;17.30;94.20
23591;DHT22;11973;52.098;7.582;2023-07-31T07:06:22;17.30;94.20
23591;DHT22;11973;52.098;7.582;2023-07-31T07:08:48;17.30;94.20
23591;DHT22;11973;52.098;7.582;2023-07-31T07:11:14;17.30;94.30
23591;DHT22;11973;52.098;7.582;2023-07-31T07:13:39;17.20;94.20
23591;DHT22;11973;52.098;7.582;2023-07-31T07:16:05;17.20;94.20
23591;DHT22;11973;52.098;7.582;2023-07-31T07:18:32;17.20;94.30
23591;DHT22;11973;52.098;7.582;2023-07-31T07:20:58;17.20;94.30
23591;DHT22;11973;52.098;7.582;2023-07-31T07:23:24;17.10;94.30
23591;DHT22;11973;52.098;7.582;2023-07-31T07:25:50;17.20;94.40
23591;DHT22;11973;52.098;7.582;2023-07-31T07:28:16;17.20;94.50
23591;DHT22;11973;52.098;7.582;2023-07-31T07:30:42;17.20;94.60
23591;DHT22;11973;52.098;7.582;2023-07-31T07:33:08;17.20;94.60
23591;DHT22;11973;52.098;7.582;2023-07-31T07:35:34;17.30;94.60
23591;DHT22;11973;52.098;7.582;2023-07-31T07:38:02;17.30;94.70
23591;DHT22;11973;52.098;7.582;2023-07-31T07:40:28;17.40;94.80
23591;DHT22;11973;52.098;7.582;2023-07-31T07:42:54;17.40;94.80
23591;DHT22;11973;52.098;7.582;2023-07-31T07:45:20;17.50;94.80
23591;DHT22;11973;52.098;7.582;2023-07-31T07:47:46;17.50;94.80
23591;DHT22;11973;52.098;7.582;2023-07-31T07:50:11;17.60;94.90
23591;DHT22;11973;52.098;7.582;2023-07-31T07:52:37;17.60;94.90
23591;DHT22;11973;52.098;7.582;2023-07-31T07:55:03;17.80;95.00
23591;DHT22;11973;52.098;7.582;2023-07-31T07:57:30;17.80;95.00
23591;DHT22;11973;52.098;7.582;2023-07-31T07:59:55;17.90;95.00
23591;DHT22;11973;52.098;7.582;2023-07-31T08:02:22;17.90;95.10
23591;DHT22;11973;52.098;7.582;2023-07-31T08:04:48;18.00;95.10
23591;DHT22;11973;52.098;7.582;2023-07-31T08:07:14;18.20;95.20
23591;DHT22;11973;52.098;7.582;2023-07-31T08:09:40;18.30;95.20
23591;DHT22;11973;52.098;7.582;2023-07-31T08:12:06;18.50;95.20
23591;DHT22;11973;52.098;7.582;2023-07-31T08:14:32;18.50;95.20
23591;DHT22;11973;52.098;7.582;2023-07-31T08:16:58;18.60;95.10
23591;DHT22;11973;52.098;7.582;2023-07-31T08:19:24;18.60;95.00
23591;DHT22;11973;52.098;7.582;2023-07-31T08:21:50;18.60;95.10
23591;DHT22;11973;52.098;7.582;2023-07-31T08:24:15;18.60;95.10
23591;DHT22;11973;52.098;7.582;2023-07-31T08:26:41;18.60;95.00
23591;DHT22;11973;52.098;7.582;2023-07-31T08:29:07;18.60;95.10
23591;DHT22;11973;52.098;7.582;2023-07-31T08:31:33;18.60;95.10
23591;DHT22;11973;52.098;7.582;2023-07-31T08:34:00;18.50;95.10
23591;DHT22;11973;52.098;7.582;2023-07-31T08:36:26;18.50;95.10
23591;DHT22;11973;52.098;7.582;2023-07-31T08:38:55;18.60;95.20
23591;DHT22;11973;52.098;7.582;2023-07-31T08:41:22;18.60;95.30
23591;DHT22;11973;52.098;7.582;2023-07-31T08:43:49;18.60;95.30
23591;DHT22;11973;52.098;7.582;2023-07-31T08:46:15;18.70;95.30
23591;DHT22;11973;52.098;7.582;2023-07-31T08:48:42;18.80;95.40
23591;DHT22;11973;52.098;7.582;2023-07-31T08:51:09;18.90;95.40
23591;DHT22;11973;52.098;7.582;2023-07-31T08:53:35;19.00;95.40
23591;DHT22;11973;52.098;7.582;2023-07-31T08:56:01;19.10;95.50
23591;DHT22;11973;52.098;7.582;2023-07-31T08:58:31;19.20;95.50
23591;DHT22;11973;52.098;7.582;2023-07-31T09:00:59;19.30;95.50
23591;DHT22;11973;52.098;7.582;2023-07-31T09:03:26;19.40;95.40
23591;DHT22;11973;52.098;7.582;2023-07-31T09:05:57;19.50;95.30
23591;DHT22;11973;52.098;7.582;2023-07-31T09:08:27;19.40;95.20
23591;DHT22;11973;52.098;7.582;2023-07-31T09:11:00;19.40;95.20
23591;DHT22;11973;52.098;7.582;2023-07-31T09:13:29;19.30;95.20
23591;DHT22;11973;52.098;7.582;2023-07-31T09:15:55;19.30;95.20
23591;DHT22;11973;52.098;7.582;2023-07-31T09:18:20;19.20;95.20
23591;DHT22;11973;52.098;7.582;2023-07-31T09:21:21;19.20;95.30
23591;DHT22;11973;52.098;7.582;2023-07-31T09:23:47;19.20;95.30
23591;DHT22;11973;52.098;7.582;2023-07-31T09:26:36;19.20;95.30
23591;DHT22;11973;52.098;7.582;2023-07-31T09:29:05;19.20;95.30
23591;DHT22;11973;52.098;7.582;2023-07-31T09:31:41;19.20;95.30
23591;DHT22;11973;52.098;7.582;2023-07-31T09:34:07;19.20;95.40
23591;DHT22;11973;52.098;7.582;2023-07-31T09:36:43;19.30;95.40
23591;DHT22;11973;52.098;7.582;2023-07-31T09:39:11;19.40;95.50
23591;DHT22;11973;52.098;7.582;2023-07-31T09:41:45;19.50;95.40
23591;DHT22;11973;52.098;7.582;2023-07-31T09:44:11;19.50;95.30
23591;DHT22;11973;52.098;7.582;2023-07-31T09:46:37;19.60;95.30
23591;DHT22;11973;52.098;7.582;2023-07-31T09:49:05;19.70;95.40
23591;DHT22;11973;52.098;7.582;2023-07-31T09:51:31;19.70;95.30
23591;DHT22;11973;52.098;7.582;2023-07-31T09:53:57;19.80;95.30
23591;DHT22;11973;52.098;7.582;2023-07-31T09:56:23;19.80;95.20
23591;DHT22;11973;52.098;7.582;2023-07-31T09:58:49;19.80;95.20
23591;DHT22;11973;52.098;7.582;2023-07-31T10:01:15;19.80;95.20
23591;DHT22;11973;52.098;7.582;2023-07-31T10:03:42;19.80;95.10
23591;DHT22;11973;52.098;7.582;2023-07-31T10:06:10;19.90;95.10
23591;DHT22;11973;52.098;7.582;2023-07-31T10:08:37;19.90;95.00
23591;DHT22;11973;52.098;7.582;2023-07-31T10:11:04;20.00;95.00
23591;DHT22;11973;52.098;7.582;2023-07-31T10:13:32;20.10;95.10
23591;DHT22;11973;52.098;7.582;2023-07-31T10:15:59;20.00;95.00
23591;DHT22;11973;52.098;7.582;2023-07-31T10:18:26;20.00;95.00
23591;DHT22;11973;52.098;7.582;2023-07-31T10:20:53;20.00;95.40
23591;DHT22;11973;52.098;7.582;2023-07-31T10:23:20;20.00;95.00
23591;DHT22;11973;52.098;7.582;2023-07-31T10:25:46;20.00;94.90
23591;DHT22;11973;52.098;7.582;2023-07-31T10:28:13;20.00;95.00
23591;DHT22;11973;52.098;7.582;2023-07-31T10:30:39;20.10;95.00
23591;DHT22;11973;52.098;7.582;2023-07-31T10:33:06;20.10;95.00
23591;DHT22;11973;52.098;7.582;2023-07-31T10:35:33;20.10;94.90
23591;DHT22;11973;52.098;7.582;2023-07-31T10:38:11;20.00;94.70
23591;DHT22;11973;52.098;7.582;2023-07-31T10:40:38;20.00;94.80
23591;DHT22;11973;52.098;7.582;2023-07-31T10:43:05;20.10;94.80
23591;DHT22;11973;52.098;7.582;2023-07-31T10:45:35;20.10;94.70
23591;DHT22;11973;52.098;7.582;2023-07-31T10:48:12;20.20;94.80
23591;DHT22;11973;52.098;7.582;2023-07-31T10:50:47;20.40;95.00
23591;DHT22;11973;52.098;7.582;2023-07-31T10:53:45;20.60;95.00
23591;DHT22;11973;52.098;7.582;2023-07-31T10:56:11;20.80;94.90
23591;DHT22;11973;52.098;7.582;2023-07-31T10:58:39;20.70;94.60
23591;DHT22;11973;52.098;7.582;2023-07-31T11:01:06;20.70;94.50
23591;DHT22;11973;52.098;7.582;2023-07-31T11:03:47;20.70;94.50
23591;DHT22;11973;52.098;7.582;2023-07-31T11:06:19;20.60;94.40
23591;DHT22;11973;52.098;7.582;2023-07-31T11:08:49;20.60;94.40
23591;DHT22;11973;52.098;7.582;2023-07-31T11:11:18;20.60;94.50
23591;DHT22;11973;52.098;7.582;2023-07-31T11:13:50;20.50;94.50
23591;DHT22;11973;52.098;7.582;2023-07-31T11:16:21;20.50;94.50
23591;DHT22;11973;52.098;7.582;2023-07-31T11:18:48;20.50;94.40
23591;DHT22;11973;52.098;7.582;2023-07-31T11:21:16;20.40;94.40
23591;DHT22;11973;52.098;7.582;2023-07-31T11:23:47;20.30;94.40
23591;DHT22;11973;52.098;7.582;2023-07-31T11:26:13;20.20;94.40
23591;DHT22;11973;52.098;7.582;2023-07-31T11:28:39;20.20;94.40
23591;DHT22;11973;52.098;7.582;2023-07-31T11:31:11;20.10;94.40
23591;DHT22;11973;52.098;7.582;2023-07-31T11:33:37;20.10;94.40
23591;DHT22;11973;52.098;7.582;2023-07-31T11:36:03;20.00;94.50
23591;DHT22;11973;52.098;7.582;2023-07-31T11:38:31;20.00;94.50
23591;DHT22;11973;52.098;7.582;2023-07-31T11:40:59;20.00;94.60
23591;DHT22;11973;52.098;7.582;2023-07-31T11:43:25;19.90;94.60
23591;DHT22;11973;52.098;7.582;2023-07-31T11:45:56;19.90;94.60
23591;DHT22;11973;52.098;7.582;2023-07-31T11:48:27;19.90;94.60
23591;DHT22;11973;52.098;7.582;2023-07-31T11:51:00;19.80;94.60
23591;DHT22;11973;52.098;7.582;2023-07-31T11:53:45;19.80;94.70
23591;DHT22;11973;52.098;7.582;2023-07-31T11:56:14;19.80;94.70
23591;DHT22;11973;52.098;7.582;2023-07-31T11:58:43;19.80;94.70
23591;DHT22;11973;52.098;7.582;2023-07-31T12:01:11;19.80;94.80
23591;DHT22;11973;52.098;7.582;2023-07-31T12:03:38;19.90;94.80
23591;DHT22;11973;52.098;7.582;2023-07-31T12:06:04;19.90;95.10
23591;DHT22;11973;52.098;7.582;2023-07-31T12:08:29;19.90;94.80
23591;DHT22;11973;52.098;7.582;2023-07-31T12:11:02;19.90;94.80
23591;DHT22;11973;52.098;7.582;2023-07-31T12:13:31;19.90;94.90
23591;DHT22;11973;52.098;7.582;2023-07-31T12:15:58;19.90;94.90
23591;DHT22;11973;52.098;7.582;2023-07-31T12:18:26;19.90;94.90
23591;DHT22;11973;52.098;7.582;2023-07-31T12:20:58;19.90;94.90
23591;DHT22;11973;52.098;7.582;2023-07-31T12:23:32;19.90;94.90
23591;DHT22;11973;52.098;7.582;2023-07-31T12:26:07;19.80;94.80
23591;DHT22;11973;52.098;7.582;2023-07-31T12:28:40;19.80;94.90
23591;DHT22;11973;52.098;7.582;2023-07-31T12:31:14;19.90;95.00
23591;DHT22;11973;52.098;7.582;2023-07-31T12:33:41;19.90;95.00
23591;DHT22;11973;52.098;7.582;2023-07-31T12:36:14;20.00;95.10
23591;DHT22;11973;52.098;7.582;2023-07-31T12:38:42;20.10;95.20
23591;DHT22;11973;52.098;7.582;2023-07-31T12:41:08;20.10;95.10
23591;DHT22;11973;52.098;7.582;2023-07-31T12:43:34;20.20;95.10
23591;DHT22;11973;52.098;7.582;2023-07-31T12:46:00;20.20;95.40
23591;DHT22;11973;52.098;7.582;2023-07-31T12:48:26;20.20;95.00
23591;DHT22;11973;52.098;7.582;2023-07-31T12:50:52;20.30;95.00
23591;DHT22;11973;52.098;7.582;2023-07-31T12:53:18;20.30;95.00
23591;DHT22;11973;52.098;7.582;2023-07-31T12:55:44;20.40;94.90
23591;DHT22;11973;52.098;7.582;2023-07-31T12:58:09;20.50;95.00
23591;DHT22;11973;52.098;7.582;2023-07-31T13:00:35;20.50;94.90
23591;DHT22;11973;52.098;7.582;2023-07-31T13:03:01;20.50;94.90
23591;DHT22;11973;52.098;7.582;2023-07-31T13:05:28;20.50;94.90
23591;DHT22;11973;52.098;7.582;2023-07-31T13:07:54;20.50;94.80
23591;DHT22;11973;52.098;7.582;2023-07-31T13:10:21;20.50;94.80
23591;DHT22;11973;52.098;7.582;2023-07-31T13:12:47;20.60;94.70
23591;DHT22;11973;52.098;7.582;2023-07-31T13:15:13;20.60;94.70
23591;DHT22;11973;52.098;7.582;2023-07-31T13:17:39;20.70;94.70
23591;DHT22;11973;52.098;7.582;2023-07-31T13:20:05;20.80;94.70
23591;DHT22;11973;52.098;7.582;2023-07-31T13:22:31;20.70;94.50
23591;DHT22;11973;52.098;7.582;2023-07-31T13:24:57;20.60;94.40
23591;DHT22;11973;52.098;7.582;2023-07-31T13:27:23;20.50;94.40
23591;DHT22;11973;52.098;7.582;2023-07-31T13:29:50;20.50;94.40
23591;DHT22;11973;52.098;7.582;2023-07-31T13:32:17;20.40;94.40
23591;DHT22;11973;52.098;7.582;2023-07-31T13:34:44;20.40;94.50
23591;DHT22;11973;52.098;7.582;2023-07-31T13:37:10;20.30;94.40
23591;DHT22;11973;52.098;7.582;2023-07-31T13:39:36;20.30;94.40
23591;DHT22;11973;52.098;7.582;2023-07-31T13:42:03;20.40;94.50
23591;DHT22;11973;52.098;7.582;2023-07-31T13:44:29;20.50;94.50
23591;DHT22;11973;52.098;7.582;2023-07-31T13:46:55;20.50;94.50
23591;DHT22;11973;52.098;7.582;2023-07-31T13:49:20;20.60;94.50
23591;DHT22;11973;52.098;7.582;2023-07-31T13:51:46;20.60;94.40
23591;DHT22;11973;52.098;7.582;2023-07-31T13:54:12;20.80;94.40
23591;DHT22;11973;52.098;7.582;2023-07-31T13:56:38;21.00;94.40
23591;DHT22;11973;52.098;7.582;2023-07-31T13:59:04;21.20;94.40
23591;DHT22;11973;52.098;7.582;2023-07-31T14:01:30;21.40;94.40
23591;DHT22;11973;52.098;7.582;2023-07-31T14:03:56;21.50;94.60
23591;DHT22;11973;52.098;7.582;2023-07-31T14:06:22;21.60;94.20
23591;DHT22;11973;52.098;7.582;2023-07-31T14:08:48;21.60;94.10
23591;DHT22;11973;52.098;7.582;2023-07-31T14:11:14;21.70;94.00
23591;DHT22;11973;52.098;7.582;2023-07-31T14:13:39;21.80;93.90
23591;DHT22;11973;52.098;7.582;2023-07-31T14:16:05;21.80;93.70
23591;DHT22;11973;52.098;7.582;2023-07-31T14:18:32;21.90;93.70
23591;DHT22;11973;52.098;7.582;2023-07-31T14:20:57;21.90;93.60
23591;DHT22;11973;52.098;7.582;2023-07-31T14:23:23;21.90;93.40
23591;DHT22;11973;52.098;7.582;2023-07-31T14:25:49;21.90;93.30
23591;DHT22;11973;52.098;7.582;2023-07-31T14:28:15;21.90;93.20
23591;DHT22;11973;52.098;7.582;2023-07-31T14:30:41;22.00;93.20
23591;DHT22;11973;52.098;7.582;2023-07-31T14:33:07;22.00;93.20
23591;DHT22;11973;52.098;7.582;2023-07-31T14:35:34;22.10;93.20
23591;DHT22;11973;52.098;7.582;2023-07-31T14:38:00;22.40;93.30
23591;DHT22;11973;52.098;7.582;2023-07-31T14:40:26;22.70;93.10
23591;DHT22;11973;52.098;7.582;2023-07-31T14:42:52;22.70;92.80
23591;DHT22;11973;52.098;7.582;2023-07-31T14:45:18;22.70;92.70
23591;DHT22;11973;52.098;7.582;2023-07-31T14:47:43;22.60;92.50
23591;DHT22;11973;52.098;7.582;2023-07-31T14:50:10;22.50;92.30
23591;DHT22;11973;52.098;7.582;2023-07-31T14:52:36;22.40;92.30
23591;DHT22;11973;52.098;7.582;2023-07-31T14:55:01;22.30;92.30
23591;DHT22;11973;52.098;7.582;2023-07-31T14:57:27;22.30;92.30
23591;DHT22;11973;52.098;7.582;2023-07-31T14:59:53;22.20;92.30
23591;DHT22;11973;52.098;7.582;2023-07-31T15:02:19;22.10;92.30
23591;DHT22;11973;52.098;7.582;2023-07-31T15:04:45;22.00;92.20
23591;DHT22;11973;52.098;7.582;2023-07-31T15:07:11;21.80;92.10
23591;DHT22;11973;52.098;7.582;2023-07-31T15:09:39;21.70;92.50
23591;DHT22;11973;52.098;7.582;2023-07-31T15:12:05;21.50;92.10
23591;DHT22;11973;52.098;7.582;2023-07-31T15:14:30;21.40;92.10
23591;DHT22;11973;52.098;7.582;2023-07-31T15:16:57;21.30;92.20
23591;DHT22;11973;52.098;7.582;2023-07-31T15:19:22;21.20;92.20
23591;DHT22;11973;52.098;7.582;2023-07-31T15:21:49;21.10;92.30
23591;DHT22;11973;52.098;7.582;2023-07-31T15:24:15;21.00;92.30
23591;DHT22;11973;52.098;7.582;2023-07-31T15:26:41;20.90;92.30
23591;DHT22;11973;52.098;7.582;2023-07-31T15:29:10;20.80;92.40
23591;DHT22;11973;52.098;7.582;2023-07-31T15:31:41;20.80;92.50
23591;DHT22;11973;52.098;7.582;2023-07-31T15:34:07;20.70;92.60
23591;DHT22;11973;52.098;7.582;2023-07-31T15:36:33;20.70;92.60
23591;DHT22;11973;52.098;7.582;2023-07-31T15:38:59;20.60;92.60
23591;DHT22;11973;52.098;7.582;2023-07-31T15:41:25;20.60;92.80
23591;DHT22;11973;52.098;7.582;2023-07-31T15:43:51;20.50;92.80
23591;DHT22;11973;52.098;7.582;2023-07-31T15:46:17;20.50;92.90
23591;DHT22;11973;52.098;7.582;2023-07-31T15:48:44;20.40;92.90
23591;DHT22;11973;52.098;7.582;2023-07-31T15:51:12;20.40;93.00
23591;DHT22;11973;52.098;7.582;2023-07-31T15:53:38;20.30;93.00
23591;DHT22;11973;52.098;7.582;2023-07-31T15:56:03;20.20;93.00
23591;DHT22;11973;52.098;7.582;2023-07-31T15:58:29;20.20;93.10
23591;DHT22;11973;52.098;7.582;2023-07-31T16:00:57;20.20;93.10
23591;DHT22;11973;52.098;7.582;2023-07-31T16:03:23;20.10;93.20
23591;DHT22;11973;52.098;7.582;2023-07-31T16:05:49;20.10;93.20
23591;DHT22;11973;52.098;7.582;2023-07-31T16:08:15;20.10;93.30
23591;DHT22;11973;52.098;7.582;2023-07-31T16:10:43;20.10;93.40
23591;DHT22;11973;52.098;7.582;2023-07-31T16:13:12;20.00;93.40
23591;DHT22;11973;52.098;7.582;2023-07-31T16:15:38;20.00;93.40
23591;DHT22;11973;52.098;7.582;2023-07-31T16:18:09;20.00;93.50
23591;DHT22;11973;52.098;7.582;2023-07-31T16:20:37;20.00;93.60
23591;DHT22;11973;52.098;7.582;2023-07-31T16:23:03;19.90;93.50
23591;DHT22;11973;52.098;7.582;2023-07-31T16:25:28;19.90;93.50
23591;DHT22;11973;52.098;7.582;2023-07-31T16:27:54;19.90;93.60
23591;DHT22;11973;52.098;7.582;2023-07-31T16:30:20;19.80;93.60
23591;DHT22;11973;52.098;7.582;2023-07-31T16:32:47;19.80;93.60
23591;DHT22;11973;52.098;7.582;2023-07-31T16:35:15;19.80;93.70
23591;DHT22;11973;52.098;7.582;2023-07-31T16:37:40;19.70;93.70
23591;DHT22;11973;52.098;7.582;2023-07-31T16:40:07;19.70;93.80
23591;DHT22;11973;52.098;7.582;2023-07-31T16:42:33;19.70;93.90
23591;DHT22;11973;52.098;7.582;2023-07-31T16:44:59;19.70;93.90
23591;DHT22;11973;52.098;7.582;2023-07-31T16:47:25;19.60;93.90
23591;DHT22;11973;52.098;7.582;2023-07-31T16:49:51;19.60;94.00
23591;DHT22;11973;52.098;7.582;2023-07-31T16:52:17;19.50;94.00
23591;DHT22;11973;52.098;7.582;2023-07-31T16:54:43;19.50;94.10
23591;DHT22;11973;52.098;7.582;2023-07-31T16:57:09;19.50;94.20
23591;DHT22;11973;52.098;7.582;2023-07-31T16:59:35;19.50;94.30
23591;DHT22;11973;52.098;7.582;2023-07-31T17:02:02;19.40;94.30
23591;DHT22;11973;52.098;7.582;2023-07-31T17:04:29;19.40;94.30
23591;DHT22;11973;52.098;7.582;2023-07-31T17:06:57;19.40;94.40
23591;DHT22;11973;52.098;7.582;2023-07-31T17:09:23;19.40;94.50
23591;DHT22;11973;52.098;7.582;2023-07-31T17:11:50;19.40;94.50
23591;DHT22;11973;52.098;7.582;2023-07-31T17:14:15;19.40;94.60
23591;DHT22;11973;52.098;7.582;2023-07-31T17:16:41;19.30;94.50
23591;DHT22;11973;52.098;7.582;2023-07-31T17:19:07;19.30;94.60
23591;DHT22;11973;52.098;7.582;2023-07-31T17:21:33;19.30;94.70
23591;DHT22;11973;52.098;7.582;2023-07-31T17:23:59;19.30;94.70
23591;DHT22;11973;52.098;7.582;2023-07-31T17:26:25;19.20;94.70
23591;DHT22;11973;52.098;7.582;2023-07-31T17:28:51;19.20;94.70
23591;DHT22;11973;52.098;7.582;2023-07-31T17:31:17;19.20;94.80
23591;DHT22;11973;52.098;7.582;2023-07-31T17:33:42;19.20;94.80
23591;DHT22;11973;52.098;7.582;2023-07-31T17:36:08;19.10;94.80
23591;DHT22;11973;52.098;7.582;2023-07-31T17:38:34;19.10;94.90
23591;DHT22;11973;52.098;7.582;2023-07-31T17:40:59;19.10;94.90
23591;DHT22;11973;52.098;7.582;2023-07-31T17:43:25;19.10;94.90
23591;DHT22;11973;52.098;7.582;2023-07-31T17:45:51;19.10;95.00
23591;DHT22;11973;52.098;7.582;2023-07-31T17:48:17;19.00;95.00
23591;DHT22;11973;52.098;7.582;2023-07-31T17:50:52;19.00;95.00
23591;DHT22;11973;52.098;7.582;2023-07-31T17:53:19;19.00;95.00
23591;DHT22;11973;52.098;7.582;2023-07-31T17:55:45;19.00;95.10
23591;DHT22;11973;52.098;7.582;2023-07-31T17:58:11;19.00;95.10
23591;DHT22;11973;52.098;7.582;2023-07-31T18:00:37;18.90;95.10
23591;DHT22;11973;52.098;7.582;2023-07-31T18:03:03;19.00;95.20
23591;DHT22;11973;52.098;7.582;2023-07-31T18:05:32;19.00;95.20
23591;DHT22;11973;52.098;7.582;2023-07-31T18:07:58;18.90;95.20
23591;DHT22;11973;52.098;7.582;2023-07-31T18:10:24;18.90;95.30
23591;DHT22;11973;52.098;7.582;2023-07-31T18:12:52;18.90;95.30
23591;DHT22;11973;52.098;7.582;2023-07-31T18:15:17;18.80;95.60
23591;DHT22;11973;52.098;7.582;2023-07-31T18:17:43;18.80;95.30
23591;DHT22;11973;52.098;7.582;2023-07-31T18:20:10;18.80;95.30
23591;DHT22;11973;52.098;7.582;2023-07-31T18:22:37;18.80;95.40
23591;DHT22;11973;52.098;7.582;2023-07-31T18:25:03;18.80;95.40
23591;DHT22;11973;52.098;7.582;2023-07-31T18:27:29;18.70;95.40
23591;DHT22;11973;52.098;7.582;2023-07-31T18:29:54;18.70;95.50
23591;DHT22;11973;52.098;7.582;2023-07-31T18:32:20;18.70;95.50
23591;DHT22;11973;52.098;7.582;2023-07-31T18:34:46;18.70;95.60
23591;DHT22;11973;52.098;7.582;2023-07-31T18:37:11;18.60;95.60
23591;DHT22;11973;52.098;7.582;2023-07-31T18:39:38;18.60;96.00
23591;DHT22;11973;52.098;7.582;2023-07-31T18:42:04;18.60;96.00
23591;DHT22;11973;52.098;7.582;2023-07-31T18:44:30;18.50;95.70
23591;DHT22;11973;52.098;7.582;2023-07-31T18:46:56;18.50;95.70
23591;DHT22;11973;52.098;7.582;2023-07-31T18:49:23;18.50;95.80
23591;DHT22;11973;52.098;7.582;2023-07-31T18:51:49;18.50;95.80
23591;DHT22;11973;52.098;7.582;2023-07-31T18:54:15;18.50;95.90
23591;DHT22;11973;52.098;7.582;2023-07-31T18:56:41;18.40;95.90
23591;DHT22;11973;52.098;7.582;2023-07-31T18:59:07;18.40;95.90
23591;DHT22;11973;52.098;7.582;2023-07-31T19:01:33;18.40;96.00
23591;DHT22;11973;52.098;7.582;2023-07-31T19:04:00;18.40;96.30
23591;DHT22;11973;52.098;7.582;2023-07-31T19:06:26;18.40;96.00
23591;DHT22;11973;52.098;7.582;2023-07-31T19:08:55;18.30;96.00
23591;DHT22;11973;52.098;7.582;2023-07-31T19:11:22;18.40;96.10
23591;DHT22;11973;52.098;7.582;2023-07-31T19:13:48;18.30;96.10
23591;DHT22;11973;52.098;7.582;2023-07-31T19:16:14;18.30;96.20
23591;DHT22;11973;52.098;7.582;2023-07-31T19:18:40;18.30;96.20
23591;DHT22;11973;52.098;7.582;2023-07-31T19:21:06;18.30;96.20
23591;DHT22;11973;52.098;7.582;2023-07-31T19:23:33;18.30;96.30
23591;DHT22;11973;52.098;7.582;2023-07-31T19:25:59;18.20;96.30
23591;DHT22;11973;52.098;7.582;2023-07-31T19:28:25;18.30;96.40
23591;DHT22;11973;52.098;7.582;2023-07-31T19:30:51;18.20;96.40
23591;DHT22;11973;52.098;7.582;2023-07-31T19:33:17;18.20;96.40
23591;DHT22;11973;52.098;7.582;2023-07-31T19:35:43;18.20;96.40
23591;DHT22;11973;52.098;7.582;2023-07-31T19:38:17;18.20;96.50
23591;DHT22;11973;52.098;7.582;2023-07-31T19:40:43;18.20;96.50
23591;DHT22;11973;52.098;7.582;2023-07-31T19:43:09;18.20;96.60